Time;durP1;ratioP1;P1;durP2;ratioP2;P2;SDS_P1;SDS_P2;PMS_P1;PMS_P2;Temp;Humidity;BMP_temperature;BMP_pressure;BME280_temperature;BME280_humidity;BME280_pressure;Samples;Min_cycle;Max_cycle;Signal;HPM_P1;HPM_P2
2021/07/15 00:01:09;;;;;;;0.00;0.00;;;16.80;95.40;;;;;;4941357;29;20465;-79
2021/07/15 00:03:35;;;;;;;0.00;0.00;;;16.80;95.40;;;;;;4941555;29;20062;-78
2021/07/15 00:06:01;;;;;;;0.10;0.00;;;16.80;95.40;;;;;;4941160;29;20023;-78
2021/07/15 00:08:27;;;;;;;0.10;0.00;;;16.80;95.30;;;;;;4940774;29;20238;-78
2021/07/15 00:10:55;;;;;;;0.00;0.00;;;16.80;95.40;;;;;;4941668;29;20023;-78
2021/07/15 00:13:20;;;;;;;0.00;0.00;;;16.80;95.40;;;;;;4940938;29;20033;-78
2021/07/15 00:15:51;;;;;;;0.00;0.00;;;16.80;95.50;;;;;;4941309;29;20451;-78
2021/07/15 00:18:26;;;;;;;0.95;0.05;;;16.80;95.60;;;;;;4940886;29;20027;-78
2021/07/15 00:20:53;;;;;;;1.50;0.00;;;16.70;95.60;;;;;;4941372;29;20031;-78
2021/07/15 00:23:19;;;;;;;0.00;0.00;;;16.80;95.70;;;;;;4940586;29;20035;-78
2021/07/15 00:25:46;;;;;;;0.05;0.00;;;16.80;95.70;;;;;;4940499;29;20034;-78
2021/07/15 00:28:12;;;;;;;0.00;0.00;;;16.70;95.70;;;;;;4940300;29;20130;-78
2021/07/15 00:30:38;;;;;;;1.85;0.00;;;16.70;96.00;;;;;;4958195;29;20042;-77
2021/07/15 00:33:05;;;;;;;0.65;0.08;;;16.80;95.80;;;;;;4957962;29;20023;-78
2021/07/15 00:35:32;;;;;;;0.95;0.00;;;16.80;95.80;;;;;;4940319;29;20087;-78
2021/07/15 00:37:57;;;;;;;0.00;0.00;;;16.80;95.80;;;;;;4940819;29;20034;-77
2021/07/15 00:40:23;;;;;;;0.00;0.00;;;16.80;95.90;;;;;;4939765;29;20031;-78
2021/07/15 00:42:49;;;;;;;0.10;0.00;;;16.70;95.90;;;;;;4939654;29;20476;-77
2021/07/15 00:45:18;;;;;;;0.20;0.00;;;16.70;96.00;;;;;;4939371;29;20113;-77
2021/07/15 00:47:47;;;;;;;0.40;0.10;;;16.70;96.10;;;;;;4957251;29;20023;-77
2021/07/15 00:50:15;;;;;;;0.00;0.00;;;16.70;96.10;;;;;;4956612;29;20031;-78
2021/07/15 00:52:41;;;;;;;1.30;0.10;;;16.70;96.20;;;;;;4939609;29;20090;-77
2021/07/15 00:55:14;;;;;;;0.10;0.00;;;16.70;96.20;;;;;;4939884;29;20122;-77
2021/07/15 00:57:40;;;;;;;0.08;0.00;;;16.70;96.10;;;;;;4957230;29;20043;-77
2021/07/15 01:00:08;;;;;;;0.40;0.00;;;16.70;96.10;;;;;;4957106;29;20055;-77
2021/07/15 01:02:34;;;;;;;0.00;0.00;;;16.60;96.20;;;;;;4939949;29;20042;-78
2021/07/15 01:05:03;;;;;;;0.20;0.10;;;16.70;96.10;;;;;;4957305;29;20032;-77
2021/07/15 01:07:29;;;;;;;1.35;0.00;;;16.70;96.20;;;;;;4939951;29;20023;-77
2021/07/15 01:09:55;;;;;;;0.88;0.08;;;16.70;96.20;;;;;;4940443;29;20028;-77
2021/07/15 01:12:53;;;;;;;0.00;0.00;;;16.70;96.20;;;;;;4939259;29;20432;-78
2021/07/15 01:15:24;;;;;;;0.00;0.00;;;16.70;96.10;;;;;;4937743;29;20047;-78
2021/07/15 01:18:03;;;;;;;0.00;0.00;;;16.70;96.10;;;;;;4940190;29;20034;-78
2021/07/15 01:20:38;;;;;;;1.02;0.10;;;16.70;96.10;;;;;;4939508;29;20125;-77
2021/07/15 01:23:19;;;;;;;0.50;0.00;;;16.70;96.10;;;;;;4940060;29;20039;-79
2021/07/15 01:26:31;;;;;;;0.03;0.00;;;16.70;96.10;;;;;;4957005;29;20023;-78
2021/07/15 01:29:25;;;;;;;0.00;0.00;;;16.60;96.10;;;;;;4939518;29;20035;-78
2021/07/15 01:31:56;;;;;;;0.05;0.00;;;16.60;96.20;;;;;;4956174;29;20031;-77
2021/07/15 01:34:23;;;;;;;0.77;0.00;;;16.70;96.20;;;;;;4938875;29;20027;-77
2021/07/15 01:36:53;;;;;;;0.20;0.10;;;16.60;96.10;;;;;;4939538;29;20126;-76
2021/07/15 01:39:24;;;;;;;0.22;0.00;;;16.60;96.10;;;;;;4938864;29;20027;-77
2021/07/15 01:41:55;;;;;;;1.75;0.00;;;16.60;96.10;;;;;;4939275;29;20038;-77
2021/07/15 01:44:27;;;;;;;0.22;0.00;;;16.60;96.10;;;;;;4956240;29;20042;-77
2021/07/15 01:46:53;;;;;;;0.00;0.00;;;16.60;96.10;;;;;;4939222;29;20118;-77
2021/07/15 01:49:20;;;;;;;0.60;0.00;;;16.70;96.00;;;;;;4955488;29;20027;-77
2021/07/15 01:51:46;;;;;;;0.00;0.00;;;16.70;96.00;;;;;;4939138;29;20038;-78
2021/07/15 01:54:12;;;;;;;0.00;0.00;;;16.70;95.90;;;;;;4939022;29;20023;-77
2021/07/15 01:56:40;;;;;;;0.03;0.00;;;16.70;95.90;;;;;;4938987;29;20062;-77
2021/07/15 01:59:15;;;;;;;0.25;0.00;;;16.70;95.80;;;;;;4938734;29;20055;-77
2021/07/15 02:01:43;;;;;;;1.00;0.00;;;16.70;95.80;;;;;;4956168;29;20035;-77
2021/07/15 02:04:09;;;;;;;0.22;0.10;;;16.70;95.90;;;;;;4955225;28;20039;-77
2021/07/15 02:06:36;;;;;;;0.10;0.00;;;16.70;95.80;;;;;;4938031;29;20134;-77
2021/07/15 02:09:06;;;;;;;0.80;0.00;;;16.70;95.80;;;;;;4938862;29;20034;-77
2021/07/15 02:11:33;;;;;;;0.75;0.00;;;16.70;95.90;;;;;;4938111;29;20027;-78
2021/07/15 02:14:11;;;;;;;2.83;0.05;;;16.70;95.80;;;;;;4955971;29;20082;-78
2021/07/15 02:16:43;;;;;;;0.03;0.03;;;16.60;95.80;;;;;;4937953;29;20499;-78
2021/07/15 02:19:09;;;;;;;;;;;16.60;95.80;;;;;;4938789;29;20070;-77
2021/07/15 02:21:36;;;;;;;0.10;0.00;;;16.60;95.60;;;;;;4937568;29;19910;-77
2021/07/15 02:24:10;;;;;;;0.00;0.00;;;16.60;95.70;;;;;;4938576;29;20037;-77
2021/07/15 02:26:38;;;;;;;0.55;0.10;;;16.60;95.60;;;;;;4937655;29;20023;-77
2021/07/15 02:29:05;;;;;;;0.00;0.00;;;16.60;95.60;;;;;;4938241;29;20087;-77
2021/07/15 02:31:40;;;;;;;0.60;0.00;;;16.60;95.60;;;;;;4938290;29;20038;-78
2021/07/15 02:34:12;;;;;;;0.30;0.00;;;16.60;95.60;;;;;;4938729;29;20027;-78
2021/07/15 02:36:39;;;;;;;0.00;0.00;;;16.60;95.50;;;;;;4955326;29;20060;-78
2021/07/15 02:39:06;;;;;;;0.03;0.00;;;16.50;95.60;;;;;;4938013;29;20027;-78
2021/07/15 02:41:32;;;;;;;0.38;0.00;;;16.60;95.70;;;;;;4936910;29;20031;-78
2021/07/15 02:43:57;;;;;;;0.13;0.00;;;16.60;95.70;;;;;;4938138;29;20032;-78
2021/07/15 02:46:23;;;;;;;0.00;0.00;;;16.60;95.60;;;;;;4937072;29;20028;-79
2021/07/15 02:48:49;;;;;;;0.28;0.00;;;16.60;95.50;;;;;;4938288;29;20058;-78
2021/07/15 02:51:15;;;;;;;0.00;0.00;;;16.60;95.50;;;;;;4937887;29;20027;-79
2021/07/15 02:53:40;;;;;;;1.65;0.00;;;16.60;95.50;;;;;;4937615;29;20027;-78
2021/07/15 02:56:12;;;;;;;1.60;0.20;;;16.60;95.50;;;;;;4937810;29;20034;-78
2021/07/15 02:58:49;;;;;;;1.05;0.05;;;16.60;95.60;;;;;;4937025;29;20093;-78
2021/07/15 03:01:19;;;;;;;0.05;0.00;;;16.50;95.60;;;;;;4937746;29;20139;-78
2021/07/15 03:04:03;;;;;;;0.00;0.00;;;16.60;95.70;;;;;;4937748;29;20027;-78
2021/07/15 03:06:36;;;;;;;0.15;0.00;;;16.60;95.60;;;;;;4937205;29;20027;-77
2021/07/15 03:09:11;;;;;;;0.13;0.10;;;16.50;95.60;;;;;;4937834;29;20038;-78
2021/07/15 03:12:01;;;;;;;0.00;0.00;;;16.60;95.70;;;;;;4954684;29;20023;-79
2021/07/15 03:14:31;;;;;;;0.85;0.00;;;16.60;95.60;;;;;;4954261;29;20027;-78
2021/07/15 03:16:58;;;;;;;0.10;0.10;;;16.60;95.60;;;;;;4954906;28;20034;-78
2021/07/15 03:19:30;;;;;;;0.00;0.00;;;16.60;95.50;;;;;;4937304;29;20377;-78
2021/07/15 03:21:58;;;;;;;;;;;16.60;95.60;;;;;;4955052;29;20082;-78
2021/07/15 03:24:25;;;;;;;0.57;0.00;;;16.70;95.50;;;;;;4936942;29;19910;-78
2021/07/15 03:26:52;;;;;;;0.00;0.00;;;16.70;95.50;;;;;;4937662;29;20094;-77
2021/07/15 03:29:19;;;;;;;1.75;0.10;;;16.70;95.50;;;;;;4937445;29;20081;-78
2021/07/15 03:31:45;;;;;;;0.45;0.05;;;16.70;95.50;;;;;;4937562;29;20039;-78
2021/07/15 03:34:11;;;;;;;1.55;0.10;;;16.70;95.40;;;;;;4937755;29;20035;-78
2021/07/15 03:36:40;;;;;;;2.60;0.08;;;16.70;95.40;;;;;;4954098;29;20268;-77
2021/07/15 03:39:06;;;;;;;0.60;0.10;;;16.70;95.50;;;;;;4937642;29;20023;-78
2021/07/15 03:41:33;;;;;;;0.17;0.17;;;16.60;95.40;;;;;;4937101;29;20035;-77
2021/07/15 03:44:00;;;;;;;1.42;0.10;;;16.70;95.50;;;;;;4937566;29;20043;-77
2021/07/15 03:46:27;;;;;;;0.00;0.00;;;16.70;95.40;;;;;;4937144;29;20469;-78
2021/07/15 03:48:54;;;;;;;1.05;0.00;;;16.70;95.50;;;;;;4954499;29;20027;-77
2021/07/15 03:51:20;;;;;;;0.60;0.17;;;16.70;95.60;;;;;;4936609;29;20070;-79
2021/07/15 03:53:47;;;;;;;0.45;0.10;;;16.60;95.70;;;;;;4954084;29;20083;-78
2021/07/15 03:56:14;;;;;;;0.85;0.10;;;16.70;95.70;;;;;;4954716;29;20081;-78
2021/07/15 03:58:43;;;;;;;0.75;0.00;;;16.70;95.80;;;;;;4936528;29;20019;-77
2021/07/15 04:01:10;;;;;;;0.00;0.00;;;16.60;95.80;;;;;;4937336;29;20472;-78
2021/07/15 04:03:37;;;;;;;0.65;0.03;;;16.60;95.90;;;;;;4936695;29;20035;-78
2021/07/15 04:06:03;;;;;;;1.80;0.10;;;16.60;96.00;;;;;;4936921;29;20543;-77
2021/07/15 04:08:31;;;;;;;1.88;0.10;;;16.60;96.00;;;;;;4953880;29;20468;-77
2021/07/15 04:11:01;;;;;;;0.20;0.10;;;16.60;96.10;;;;;;4937181;29;20023;-77
2021/07/15 04:13:28;;;;;;;0.20;0.10;;;16.60;96.10;;;;;;4936964;29;20031;-77
2021/07/15 04:15:54;;;;;;;0.30;0.10;;;16.60;96.00;;;;;;4936639;29;20023;-78
2021/07/15 04:18:34;;;;;;;2.40;0.10;;;16.60;96.10;;;;;;4954293;29;20461;-78
2021/07/15 04:21:00;;;;;;;0.15;0.13;;;16.60;96.10;;;;;;4937065;29;20020;-77
2021/07/15 04:23:29;;;;;;;0.10;0.10;;;16.60;96.20;;;;;;4953800;29;20527;-78
2021/07/15 04:25:55;;;;;;;1.33;0.10;;;16.60;96.20;;;;;;4954213;29;20035;-77
2021/07/15 04:28:22;;;;;;;0.10;0.10;;;16.60;96.30;;;;;;4955864;28;20027;-78
2021/07/15 04:30:50;;;;;;;1.63;0.10;;;16.60;96.30;;;;;;4940511;29;20034;-78
2021/07/15 04:33:17;;;;;;;0.10;0.10;;;16.60;96.30;;;;;;4957940;29;20079;-77
2021/07/15 04:35:43;;;;;;;2.63;0.30;;;16.60;96.30;;;;;;4939859;29;20095;-77
2021/07/15 04:38:09;;;;;;;3.05;0.10;;;16.60;96.40;;;;;;4940734;29;20473;-77
2021/07/15 04:40:35;;;;;;;0.20;0.10;;;16.60;96.40;;;;;;4939529;29;20038;-78
2021/07/15 04:43:10;;;;;;;1.38;0.20;;;16.60;96.40;;;;;;4940305;29;20118;-77
2021/07/15 04:45:40;;;;;;;1.30;0.20;;;16.60;96.60;;;;;;4956782;29;20085;-78
2021/07/15 04:48:07;;;;;;;0.55;0.10;;;16.60;96.70;;;;;;4940225;29;20063;-77
2021/07/15 04:50:34;;;;;;;1.83;0.10;;;16.50;97.00;;;;;;4957057;29;20046;-77
2021/07/15 04:53:06;;;;;;;0.10;0.10;;;16.50;97.20;;;;;;4957497;29;20027;-78
2021/07/15 04:55:32;;;;;;;1.48;0.25;;;16.50;97.20;;;;;;4956782;29;20046;-78
2021/07/15 04:58:01;;;;;;;0.70;0.10;;;16.60;97.00;;;;;;4940329;29;20058;-78
2021/07/15 05:00:27;;;;;;;0.73;0.10;;;16.50;97.00;;;;;;4956461;29;20489;-78
2021/07/15 05:03:21;;;;;;;1.98;0.10;;;16.60;97.00;;;;;;4940257;29;20039;-78
2021/07/15 05:05:47;;;;;;;0.95;0.10;;;16.70;96.80;;;;;;4956754;29;20059;-78
2021/07/15 05:08:13;;;;;;;0.60;0.05;;;16.70;96.70;;;;;;4940020;29;20054;-78
2021/07/15 05:10:38;;;;;;;0.10;0.10;;;16.80;96.70;;;;;;4939864;29;20034;-78
2021/07/15 05:13:04;;;;;;;1.38;0.10;;;16.80;96.60;;;;;;4940242;29;20555;-78
2021/07/15 05:15:30;;;;;;;1.45;0.10;;;16.80;96.50;;;;;;4956428;29;20031;-78
2021/07/15 05:17:56;;;;;;;0.10;0.05;;;16.80;96.50;;;;;;4939775;29;20472;-78
2021/07/15 05:20:21;;;;;;;1.15;0.10;;;16.80;96.40;;;;;;4939886;29;20031;-78
2021/07/15 05:22:47;;;;;;;1.40;0.10;;;16.80;96.40;;;;;;4938897;29;20465;-78
2021/07/15 05:25:13;;;;;;;0.20;0.10;;;16.90;96.40;;;;;;4939592;29;20031;-78
2021/07/15 05:27:38;;;;;;;0.93;0.20;;;16.80;96.50;;;;;;4938968;29;20104;-78
2021/07/15 05:30:06;;;;;;;1.10;0.20;;;16.80;96.60;;;;;;4957022;29;20059;-78
2021/07/15 05:32:32;;;;;;;3.50;0.30;;;16.90;96.60;;;;;;4939503;29;20043;-78
2021/07/15 05:34:58;;;;;;;0.90;0.30;;;16.80;96.60;;;;;;4939686;29;20032;-78
2021/07/15 05:37:23;;;;;;;0.40;0.40;;;16.80;96.50;;;;;;4939624;29;20023;-77
2021/07/15 05:39:49;;;;;;;2.00;0.30;;;16.90;96.30;;;;;;4938797;29;20031;-77
2021/07/15 05:42:15;;;;;;;3.13;0.55;;;16.90;96.30;;;;;;4939605;29;20086;-77
2021/07/15 05:44:40;;;;;;;0.40;0.40;;;16.90;96.20;;;;;;4938935;29;20453;-78
2021/07/15 05:47:09;;;;;;;0.93;0.40;;;16.90;95.90;;;;;;4956883;29;20027;-78
2021/07/15 05:49:38;;;;;;;1.30;0.40;;;16.90;95.80;;;;;;4938956;29;20031;-78
2021/07/15 05:52:05;;;;;;;3.70;0.57;;;16.90;96.10;;;;;;4939056;29;20031;-78
2021/07/15 05:54:31;;;;;;;2.90;0.85;;;16.90;95.90;;;;;;4938933;29;20130;-77
2021/07/15 05:56:58;;;;;;;0.60;0.50;;;16.90;95.80;;;;;;4939067;29;20031;-78
2021/07/15 05:59:23;;;;;;;1.33;0.43;;;16.90;95.80;;;;;;4932363;29;20107;-78
2021/07/15 06:01:49;;;;;;;1.65;0.63;;;16.90;95.90;;;;;;4919033;29;20055;-78
2021/07/15 06:04:15;;;;;;;1.10;0.60;;;17.00;95.80;;;;;;4919917;29;20062;-78
2021/07/15 06:06:41;;;;;;;4.85;0.80;;;17.10;95.70;;;;;;4919333;29;20038;-78
2021/07/15 06:09:07;;;;;;;3.90;0.70;;;17.10;95.70;;;;;;4920032;29;20028;-78
2021/07/15 06:11:32;;;;;;;3.70;0.75;;;17.10;95.50;;;;;;4936651;29;20028;-78
2021/07/15 06:13:58;;;;;;;3.05;0.68;;;17.10;95.50;;;;;;4936891;29;20028;-78
2021/07/15 06:16:24;;;;;;;1.95;0.73;;;17.20;95.50;;;;;;4920105;29;20028;-78
2021/07/15 06:18:49;;;;;;;4.45;0.60;;;17.20;95.60;;;;;;4936609;29;20027;-78
2021/07/15 06:21:15;;;;;;;5.07;0.85;;;17.20;95.50;;;;;;4919930;29;20464;-77
2021/07/15 06:23:40;;;;;;;2.75;0.70;;;17.30;95.50;;;;;;4936068;29;20035;-78
2021/07/15 06:26:06;;;;;;;1.65;0.60;;;17.30;95.50;;;;;;4919652;29;20027;-77
2021/07/15 06:28:32;;;;;;;3.05;0.70;;;17.30;95.50;;;;;;4936016;29;20037;-79
2021/07/15 06:30:58;;;;;;;1.75;0.80;;;17.30;95.50;;;;;;4920035;29;20478;-78
2021/07/15 06:33:24;;;;;;;4.03;0.50;;;17.30;95.50;;;;;;4919408;29;20028;-77
2021/07/15 06:35:51;;;;;;;2.92;0.65;;;17.40;95.40;;;;;;4935544;29;20023;-77
2021/07/15 06:38:18;;;;;;;1.60;0.50;;;17.40;95.30;;;;;;4919355;29;20475;-77
2021/07/15 06:40:54;;;;;;;3.13;0.60;;;17.40;95.30;;;;;;4935066;29;20519;-78
2021/07/15 06:43:20;;;;;;;1.85;0.47;;;17.40;95.30;;;;;;4919064;29;20028;-77
2021/07/15 06:45:46;;;;;;;2.63;0.47;;;17.50;95.40;;;;;;4935436;29;20036;-77
2021/07/15 06:48:11;;;;;;;0.80;0.30;;;17.60;95.40;;;;;;4918931;29;20028;-76
2021/07/15 06:50:37;;;;;;;2.15;0.30;;;17.60;95.30;;;;;;4935086;29;20067;-77
2021/07/15 06:53:03;;;;;;;0.55;0.52;;;17.60;95.40;;;;;;4918927;29;20086;-77
2021/07/15 06:55:28;;;;;;;1.20;0.30;;;17.60;95.30;;;;;;4918393;29;20031;-78
2021/07/15 06:57:54;;;;;;;3.67;0.30;;;17.60;95.10;;;;;;4935371;29;20031;-78
2021/07/15 07:00:22;;;;;;;1.75;0.47;;;17.50;95.20;;;;;;4950251;29;20401;-77
2021/07/15 07:02:48;;;;;;;1.42;0.30;;;17.60;95.40;;;;;;4937418;29;20393;-77
2021/07/15 07:05:15;;;;;;;1.40;0.28;;;17.60;95.40;;;;;;4937971;29;20034;-77
2021/07/15 07:07:41;;;;;;;2.00;0.60;;;17.60;95.10;;;;;;4937426;29;20476;-77
2021/07/15 07:10:10;;;;;;;2.72;0.60;;;17.70;95.20;;;;;;4937915;29;20465;-77
2021/07/15 07:12:36;;;;;;;3.13;0.50;;;17.70;95.10;;;;;;4937044;29;20031;-77
2021/07/15 07:15:07;;;;;;;6.50;1.35;;;17.70;95.00;;;;;;4954696;29;20054;-77
2021/07/15 07:17:33;;;;;;;6.35;0.80;;;17.70;94.90;;;;;;4937114;29;20065;-79
2021/07/15 07:20:00;;;;;;;6.10;1.17;;;17.80;94.80;;;;;;4954545;29;20114;-78
2021/07/15 07:22:26;;;;;;;2.67;0.60;;;17.90;94.60;;;;;;4937391;29;20032;-77
2021/07/15 07:24:51;;;;;;;4.70;0.60;;;18.00;94.50;;;;;;4954385;29;20633;-77
2021/07/15 07:27:17;;;;;;;1.90;0.80;;;17.90;94.40;;;;;;4937514;29;20034;-77
2021/07/15 07:29:42;;;;;;;3.25;0.80;;;18.10;94.40;;;;;;4936925;29;20129;-78
2021/07/15 07:32:08;;;;;;;0.70;0.47;;;18.20;94.30;;;;;;4937194;29;20494;-77
2021/07/15 07:34:34;;;;;;;4.13;0.60;;;18.20;94.20;;;;;;4954709;29;20027;-78
2021/07/15 07:37:00;;;;;;;2.50;0.40;;;18.30;94.20;;;;;;4937707;29;20031;-78
2021/07/15 07:39:26;;;;;;;3.53;0.50;;;18.30;93.90;;;;;;4954689;29;20393;-77
2021/07/15 07:41:52;;;;;;;0.68;0.28;;;18.40;93.50;;;;;;4954164;29;20030;-78
2021/07/15 07:44:18;;;;;;;0.52;0.30;;;18.30;93.40;;;;;;4937313;29;20086;-76
2021/07/15 07:46:43;;;;;;;0.70;0.10;;;18.30;93.50;;;;;;4954383;29;20106;-77
2021/07/15 07:49:09;;;;;;;1.27;0.35;;;18.30;93.50;;;;;;4937472;29;20072;-78
2021/07/15 07:51:35;;;;;;;1.20;0.20;;;18.30;93.40;;;;;;4937415;29;20362;-78
2021/07/15 07:54:02;;;;;;;0.03;0.03;;;18.40;93.20;;;;;;4937613;29;20170;-77
2021/07/15 07:56:28;;;;;;;0.17;0.17;;;18.40;93.10;;;;;;4936882;29;20023;-77
2021/07/15 07:58:54;;;;;;;0.40;0.20;;;18.50;93.10;;;;;;4936585;29;20171;-78
2021/07/15 08:01:19;;;;;;;1.10;0.20;;;18.50;92.90;;;;;;4936962;28;20031;-77
2021/07/15 08:03:45;;;;;;;0.20;0.20;;;18.50;92.80;;;;;;4939525;29;20036;-78
2021/07/15 08:06:12;;;;;;;0.30;0.17;;;18.60;92.50;;;;;;4958584;29;20461;-78
2021/07/15 08:08:39;;;;;;;0.22;0.20;;;18.80;92.40;;;;;;4940862;29;20031;-77
2021/07/15 08:11:05;;;;;;;0.10;0.10;;;18.80;92.70;;;;;;4958250;29;20042;-78
2021/07/15 08:13:31;;;;;;;0.22;0.20;;;18.90;92.40;;;;;;4941178;29;20065;-78
2021/07/15 08:15:57;;;;;;;0.40;0.17;;;19.00;92.00;;;;;;4957781;29;20051;-78
2021/07/15 08:18:23;;;;;;;0.10;0.10;;;19.00;92.00;;;;;;4958352;29;20031;-78
2021/07/15 08:20:49;;;;;;;0.75;0.20;;;19.00;92.30;;;;;;4957457;29;20034;-78
2021/07/15 08:23:15;;;;;;;0.43;0.10;;;19.00;91.90;;;;;;4940583;29;20118;-77
2021/07/15 08:25:41;;;;;;;0.20;0.17;;;18.90;91.90;;;;;;4957652;29;20031;-78
2021/07/15 08:28:07;;;;;;;0.20;0.20;;;18.90;91.80;;;;;;4940516;29;20516;-77
2021/07/15 08:30:33;;;;;;;0.70;0.25;;;18.90;92.00;;;;;;4957880;29;20032;-77
2021/07/15 08:32:59;;;;;;;0.22;0.22;;;18.90;91.70;;;;;;4939961;29;20086;-78
2021/07/15 08:35:28;;;;;;;0.20;0.20;;;19.00;91.60;;;;;;4940570;29;20028;-77
2021/07/15 08:37:55;;;;;;;0.30;0.30;;;19.00;91.50;;;;;;4957009;29;20027;-78
2021/07/15 08:40:22;;;;;;;0.50;0.30;;;18.90;91.80;;;;;;4940421;29;20059;-78
2021/07/15 08:42:48;;;;;;;0.30;0.30;;;19.00;91.80;;;;;;4956862;29;20081;-78
2021/07/15 08:45:13;;;;;;;0.70;0.50;;;19.00;91.70;;;;;;4940605;29;20114;-77
2021/07/15 08:47:42;;;;;;;1.52;0.50;;;19.10;91.70;;;;;;4940055;29;20035;-83
2021/07/15 08:50:11;;;;;;;0.90;0.25;;;19.00;91.70;;;;;;4938964;28;20135;-76
2021/07/15 08:52:37;;;;;;;2.05;0.47;;;19.00;91.80;;;;;;4923170;29;20469;-73
2021/07/15 08:57:38;;;;;;;0.55;0.40;;;19.10;91.50;;;;;;4956491;29;20038;-76
2021/07/15 09:00:31;;;;;;;0.30;0.30;;;19.20;91.20;;;;;;4944799;29;20051;-73
2021/07/15 09:02:56;;;;;;;0.30;0.30;;;19.30;90.70;;;;;;4919590;29;20043;-74
2021/07/15 09:05:22;;;;;;;0.40;0.40;;;19.30;90.80;;;;;;4938934;29;20465;-78
2021/07/15 09:07:48;;;;;;;1.10;0.70;;;19.30;90.70;;;;;;4938625;29;20536;-76
2021/07/15 09:10:14;;;;;;;0.32;0.30;;;19.20;90.70;;;;;;4939478;29;20059;-76
2021/07/15 09:12:39;;;;;;;0.40;0.40;;;19.30;90.80;;;;;;4938704;29;20062;-75
2021/07/15 09:15:07;;;;;;;1.52;0.50;;;19.30;90.70;;;;;;4938877;29;20108;-76
2021/07/15 09:17:35;;;;;;;0.45;0.40;;;19.30;90.50;;;;;;4956472;29;20350;-76
2021/07/15 09:20:05;;;;;;;0.30;0.30;;;19.40;90.40;;;;;;4938651;29;20441;-75
2021/07/15 09:22:32;;;;;;;0.82;0.57;;;19.30;90.40;;;;;;4938908;29;20035;-77
2021/07/15 09:25:00;;;;;;;0.50;0.50;;;19.40;90.20;;;;;;4955507;29;20027;-77
2021/07/15 09:27:27;;;;;;;0.43;0.43;;;19.40;90.10;;;;;;4939019;29;20098;-76
2021/07/15 09:30:09;;;;;;;1.00;0.40;;;19.40;90.50;;;;;;4955140;29;20023;-76
2021/07/15 09:32:56;;;;;;;0.40;0.40;;;19.40;90.20;;;;;;4939050;29;20038;-76
2021/07/15 09:35:29;;;;;;;0.60;0.50;;;19.50;90.10;;;;;;4939460;29;20412;-76
2021/07/15 09:37:56;;;;;;;0.75;0.47;;;19.50;90.10;;;;;;4938162;29;20027;-76
2021/07/15 09:41:01;;;;;;;0.70;0.45;;;19.50;90.00;;;;;;4938627;29;20082;-76
2021/07/15 09:43:38;;;;;;;0.73;0.50;;;19.60;89.90;;;;;;4938715;29;20081;-75
2021/07/15 09:46:12;;;;;;;0.65;0.50;;;19.60;90.00;;;;;;4938033;29;20039;-75
2021/07/15 09:48:40;;;;;;;0.85;0.80;;;19.70;90.10;;;;;;4938087;29;20035;-77
2021/07/15 09:51:11;;;;;;;1.05;0.60;;;19.80;90.20;;;;;;4938280;29;20023;-76
2021/07/15 09:53:37;;;;;;;5.15;0.50;;;19.80;90.20;;;;;;4938567;29;20031;-75
2021/07/15 09:56:08;;;;;;;0.47;0.45;;;19.90;90.20;;;;;;4938023;29;20074;-76
2021/07/15 09:58:36;;;;;;;0.30;0.30;;;19.90;90.00;;;;;;4938226;29;20389;-75
2021/07/15 10:01:31;;;;;;;0.40;0.40;;;19.80;89.80;;;;;;4936794;29;20059;-74
2021/07/15 10:04:03;;;;;;;1.40;0.40;;;19.90;89.60;;;;;;4937476;29;20094;-73
2021/07/15 10:06:46;;;;;;;0.38;0.38;;;20.00;90.10;;;;;;4937993;29;20034;-74
2021/07/15 10:09:24;;;;;;;1.25;0.40;;;20.10;90.30;;;;;;4933507;29;20027;-74
2021/07/15 10:11:54;;;;;;;0.60;0.50;;;20.20;90.20;;;;;;4937266;29;20039;-74
2021/07/15 10:14:34;;;;;;;0.57;0.50;;;20.30;90.00;;;;;;4938026;29;20492;-75
2021/07/15 10:17:00;;;;;;;0.50;0.38;;;20.30;88.60;;;;;;4948412;29;20028;-75
2021/07/15 10:19:25;;;;;;;0.47;0.43;;;20.40;87.80;;;;;;4951428;29;20034;-74
2021/07/15 10:22:02;;;;;;;0.55;0.40;;;20.40;87.50;;;;;;4935885;29;20035;-75
2021/07/15 10:24:28;;;;;;;0.65;0.50;;;20.40;87.20;;;;;;4924319;28;20122;-76
2021/07/15 10:26:56;;;;;;;0.30;0.30;;;20.50;86.20;;;;;;4935788;29;20031;-75
2021/07/15 10:29:22;;;;;;;0.43;0.30;;;20.60;86.00;;;;;;4937481;29;20034;-75
2021/07/15 10:31:49;;;;;;;0.90;0.52;;;20.70;85.70;;;;;;4936148;29;20042;-74
2021/07/15 10:34:15;;;;;;;1.17;0.30;;;20.70;86.10;;;;;;4922590;29;20376;-74
2021/07/15 10:36:42;;;;;;;1.25;0.30;;;20.80;86.90;;;;;;4929504;29;20028;-75
2021/07/15 10:39:13;;;;;;;0.25;0.25;;;20.80;87.40;;;;;;4929272;29;20031;-74
2021/07/15 10:41:41;;;;;;;;;;;20.90;85.80;;;;;;4922478;29;20106;-76
2021/07/15 10:44:08;;;;;;;0.38;0.28;;;21.00;83.60;;;;;;4938706;29;19914;-74
2021/07/15 10:46:34;;;;;;;1.02;0.40;;;21.00;84.30;;;;;;4930482;29;20031;-75
2021/07/15 10:49:00;;;;;;;0.63;0.60;;;21.00;83.40;;;;;;4944180;29;20457;-74
2021/07/15 10:51:26;;;;;;;8.70;5.00;;;21.10;82.30;;;;;;4937348;29;20473;-75
2021/07/15 10:53:52;;;;;;;1.60;1.00;;;21.10;82.60;;;;;;4919737;29;20525;-75
2021/07/15 10:56:19;;;;;;;1.15;0.50;;;21.20;82.60;;;;;;4939906;29;20520;-77
2021/07/15 10:58:53;;;;;;;2.65;0.50;;;21.20;82.20;;;;;;4928262;29;20374;-75
2021/07/15 11:01:37;;;;;;;0.45;0.20;;;21.40;81.30;;;;;;4930195;29;20055;-75
2021/07/15 11:04:13;;;;;;;0.50;0.30;;;21.60;81.30;;;;;;4920404;29;20054;-74
2021/07/15 11:06:40;;;;;;;0.43;0.30;;;21.50;81.20;;;;;;4929623;29;20059;-74
2021/07/15 11:09:06;;;;;;;1.50;0.30;;;21.60;81.90;;;;;;4945170;29;20759;-75
2021/07/15 11:11:42;;;;;;;0.40;0.30;;;21.60;80.60;;;;;;4952956;29;20050;-73
2021/07/15 11:14:33;;;;;;;0.30;0.30;;;21.60;81.80;;;;;;4936200;29;20027;-77
2021/07/15 11:16:59;;;;;;;0.30;0.30;;;21.70;81.20;;;;;;4944389;29;20038;-78
2021/07/15 11:20:00;;;;;;;0.32;0.32;;;21.70;81.80;;;;;;4950459;29;20102;-77
2021/07/15 11:22:55;;;;;;;0.30;0.30;;;21.80;82.00;;;;;;4934865;29;20082;-74
2021/07/15 11:25:35;;;;;;;1.77;0.50;;;22.00;82.30;;;;;;4941139;29;20051;-74
2021/07/15 11:28:10;;;;;;;0.35;0.32;;;22.10;80.60;;;;;;4950064;29;20038;-77
2021/07/15 11:30:35;;;;;;;0.50;0.40;;;22.20;82.20;;;;;;4924792;29;20035;-75
2021/07/15 11:33:26;;;;;;;0.40;0.40;;;22.20;79.70;;;;;;4925994;29;20090;-74
2021/07/15 11:36:00;;;;;;;1.80;0.32;;;22.30;78.90;;;;;;4940200;29;20048;-75
2021/07/15 11:38:35;;;;;;;0.75;0.32;;;22.30;78.90;;;;;;4921734;29;20062;-74
2021/07/15 11:41:04;;;;;;;0.50;0.50;;;22.30;79.20;;;;;;4931053;29;20465;-74
2021/07/15 11:43:46;;;;;;;0.50;0.45;;;22.30;78.90;;;;;;4943824;29;20089;-75
2021/07/15 11:46:24;;;;;;;0.30;0.30;;;22.30;78.90;;;;;;4938642;29;20373;-74
2021/07/15 11:48:52;;;;;;;0.47;0.40;;;22.30;79.20;;;;;;4925800;29;20027;-75
2021/07/15 11:51:25;;;;;;;0.75;0.40;;;22.40;78.50;;;;;;4951267;29;20469;-75
2021/07/15 11:54:19;;;;;;;0.65;0.50;;;22.30;78.50;;;;;;4924483;29;20381;-74
2021/07/15 11:56:57;;;;;;;0.40;0.30;;;22.20;77.60;;;;;;4949222;29;20031;-78
2021/07/15 11:59:32;;;;;;;0.75;0.30;;;22.20;78.30;;;;;;4930162;29;20135;-78
2021/07/15 12:02:29;;;;;;;0.50;0.40;;;22.20;78.50;;;;;;4905130;29;20044;-75
2021/07/15 12:05:10;;;;;;;2.13;0.40;;;22.10;78.70;;;;;;4911121;29;20493;-78
2021/07/15 12:08:03;;;;;;;1.05;0.50;;;22.00;79.00;;;;;;4934680;29;20056;-79
2021/07/15 12:10:35;;;;;;;0.35;0.35;;;21.90;80.00;;;;;;4917642;29;20061;-79
2021/07/15 12:13:02;;;;;;;0.50;0.40;;;21.80;80.10;;;;;;4910385;29;20028;-78
2021/07/15 12:15:29;;;;;;;0.93;0.45;;;21.70;80.10;;;;;;4933411;29;20028;-78
2021/07/15 12:18:00;;;;;;;0.40;0.40;;;21.70;79.70;;;;;;4901602;29;20039;-80
2021/07/15 12:20:43;;;;;;;1.25;0.73;;;21.60;79.90;;;;;;4936927;29;20062;-77
2021/07/15 12:23:17;;;;;;;0.40;0.40;;;21.60;79.60;;;;;;4909218;29;20091;-77
2021/07/15 12:25:44;;;;;;;0.38;0.38;;;21.60;79.60;;;;;;4917722;29;20056;-77
2021/07/15 12:28:14;;;;;;;0.40;0.40;;;21.70;79.60;;;;;;4905145;29;20028;-76
2021/07/15 12:30:52;;;;;;;0.73;0.50;;;21.80;79.10;;;;;;4913413;29;20531;-77
2021/07/15 12:33:21;;;;;;;0.30;0.30;;;22.00;79.70;;;;;;4919067;29;20039;-73
2021/07/15 12:35:49;;;;;;;0.85;0.40;;;22.30;78.00;;;;;;4916930;29;20114;-74
2021/07/15 12:38:16;;;;;;;0.47;0.47;;;22.60;76.40;;;;;;4923040;29;20071;-74
2021/07/15 12:40:42;;;;;;;1.08;0.98;;;22.80;75.80;;;;;;4912866;29;20088;-74
2021/07/15 12:43:13;;;;;;;0.90;0.60;;;23.10;75.00;;;;;;4912276;29;20035;-75
2021/07/15 12:45:39;;;;;;;0.70;0.60;;;23.30;74.80;;;;;;4932562;29;20167;-77
2021/07/15 12:48:07;;;;;;;0.50;0.40;;;23.30;72.50;;;;;;4918787;29;20119;-75
2021/07/15 12:50:33;;;;;;;0.60;0.43;;;23.30;71.40;;;;;;4935614;29;20034;-75
2021/07/15 12:53:21;;;;;;;0.32;0.32;;;23.40;71.60;;;;;;4920015;29;20489;-75
2021/07/15 12:55:47;;;;;;;1.88;0.50;;;23.50;71.60;;;;;;4936821;29;20020;-75
2021/07/15 12:58:14;;;;;;;0.68;0.60;;;23.40;72.70;;;;;;4936641;29;20378;-75
2021/07/15 13:00:41;;;;;;;2.97;0.60;;;23.40;72.00;;;;;;4951364;29;20055;-76
2021/07/15 13:03:08;;;;;;;0.50;0.40;;;23.50;71.60;;;;;;4955164;29;20028;-76